createdAt,value
2022-08-02T00:00:57.183Z,82.30
2022-08-02T00:03:24.681Z,82.15
2022-08-02T00:05:53.209Z,82.57
2022-08-02T00:08:21.987Z,81.82
2022-08-02T00:10:49.932Z,80.35
2022-08-02T00:13:17.919Z,80.18
2022-08-02T00:15:45.027Z,80.76
2022-08-02T00:18:12.093Z,81.47
2022-08-02T00:20:39.073Z,81.11
2022-08-02T00:23:06.147Z,80.82
2022-08-02T00:25:33.161Z,80.06
2022-08-02T00:28:00.277Z,80.12
2022-08-02T00:30:27.256Z,80.00
2022-08-02T00:32:54.180Z,80.69
2022-08-02T00:35:21.367Z,80.77
2022-08-02T00:37:48.367Z,81.52
2022-08-02T00:40:15.540Z,82.45
2022-08-02T00:42:44.233Z,82.90
2022-08-02T00:45:11.353Z,83.56
2022-08-02T00:47:38.309Z,84.33
2022-08-02T00:50:06.217Z,84.23
2022-08-02T00:52:33.142Z,83.24
2022-08-02T00:55:00.213Z,82.74
2022-08-02T00:57:27.176Z,81.11
2022-08-02T00:59:54.091Z,81.14
2022-08-02T01:02:21.192Z,80.79
2022-08-02T01:04:48.224Z,81.26
2022-08-02T01:07:15.852Z,83.59
2022-08-02T01:09:43.876Z,83.70
2022-08-02T01:12:11.967Z,83.57
2022-08-02T01:14:44.189Z,84.74
2022-08-02T01:17:47.070Z,84.56
2022-08-02T01:20:47.937Z,82.00
2022-08-02T01:23:52.555Z,81.93
2022-08-02T01:26:51.310Z,82.69
2022-08-02T01:29:31.479Z,82.17
2022-08-02T01:32:19.765Z,83.49
2022-08-02T01:35:20.415Z,83.99
2022-08-02T01:38:00.381Z,84.31
2022-08-02T01:40:31.839Z,84.15
2022-08-02T01:42:59.784Z,84.40
2022-08-02T01:45:31.055Z,85.60
2022-08-02T01:48:00.027Z,84.66
2022-08-02T01:50:32.643Z,86.26
2022-08-02T01:53:05.728Z,87.18
2022-08-02T01:55:57.018Z,87.20
2022-08-02T01:58:31.683Z,86.20
2022-08-02T02:01:01.239Z,85.45
2022-08-02T02:03:29.978Z,86.82
2022-08-02T02:05:58.969Z,87.20
2022-08-02T02:08:39.072Z,86.82
2022-08-02T02:12:12.086Z,87.72
2022-08-02T02:13:55.534Z,87.30
2022-08-02T02:16:23.940Z,88.15
2022-08-02T02:18:52.724Z,87.87
2022-08-02T02:21:19.991Z,87.47
2022-08-02T02:23:47.007Z,87.18
2022-08-02T02:26:20.859Z,87.96
2022-08-02T02:29:02.150Z,86.78
2022-08-02T02:31:35.041Z,87.09
2022-08-02T02:34:10.352Z,86.43
2022-08-02T02:36:41.989Z,87.28
2022-08-02T02:39:13.766Z,87.78
2022-08-02T02:41:43.014Z,88.38
2022-08-02T02:44:14.180Z,91.62
2022-08-02T02:46:41.904Z,92.01
2022-08-02T02:49:11.596Z,90.03
2022-08-02T02:51:42.604Z,88.55
2022-08-02T02:54:31.112Z,89.72
2022-08-02T02:57:01.065Z,94.41
2022-08-02T02:59:28.922Z,97.08
2022-08-02T03:01:58.073Z,99.09
2022-08-02T03:04:56.453Z,96.73
2022-08-02T03:07:16.210Z,93.87
2022-08-02T03:09:43.483Z,92.74
2022-08-02T03:12:11.640Z,90.09
2022-08-02T03:14:43.802Z,91.64
2022-08-02T03:17:10.878Z,93.66
2022-08-02T03:19:39.263Z,93.38
2022-08-02T03:22:06.339Z,95.10
2022-08-02T03:24:33.252Z,93.94
2022-08-02T03:27:00.279Z,92.87
2022-08-02T03:29:30.332Z,91.36
2022-08-02T03:31:59.778Z,91.48
2022-08-02T03:34:26.994Z,91.34
2022-08-02T03:36:56.406Z,91.51
2022-08-02T03:39:23.977Z,92.37
2022-08-02T03:41:51.577Z,92.81
2022-08-02T03:44:18.808Z,94.36
2022-08-02T03:46:47.326Z,95.04
2022-08-02T03:49:16.715Z,95.90
2022-08-02T03:51:45.374Z,97.04
2022-08-02T03:54:14.739Z,96.12
2022-08-02T03:56:42.159Z,96.66
2022-08-02T03:59:13.264Z,96.00
2022-08-02T04:01:41.001Z,95.82
2022-08-02T04:04:08.793Z,95.71
2022-08-02T04:06:40.250Z,96.24
2022-08-02T04:09:09.763Z,95.86
2022-08-02T04:11:37.889Z,95.79
2022-08-02T04:14:11.160Z,94.94
2022-08-02T04:16:45.622Z,92.75
2022-08-02T04:19:23.831Z,90.92
2022-08-02T04:21:53.382Z,91.62
2022-08-02T04:24:28.606Z,90.87
2022-08-02T04:27:19.285Z,90.48
2022-08-02T04:29:47.144Z,89.94
2022-08-02T04:32:16.146Z,90.30
2022-08-02T04:34:54.246Z,91.11
2022-08-02T04:37:32.194Z,92.20
2022-08-02T04:39:59.215Z,92.24
2022-08-02T04:42:27.378Z,91.66
2022-08-02T04:44:54.823Z,90.21
2022-08-02T04:48:01.568Z,88.66
2022-08-02T04:50:10.118Z,88.32
2022-08-02T04:52:37.063Z,89.00
2022-08-02T04:55:04.612Z,90.38
2022-08-02T04:57:52.987Z,92.37
2022-08-02T05:00:20.832Z,91.41
2022-08-02T05:02:48.607Z,90.32
2022-08-02T05:05:16.186Z,89.93
2022-08-02T05:07:44.328Z,89.61
2022-08-02T05:10:11.570Z,87.84
2022-08-02T05:12:41.781Z,85.10
2022-08-02T05:15:12.795Z,84.30
2022-08-02T05:17:45.512Z,84.10
2022-08-02T05:20:19.636Z,82.74
2022-08-02T05:22:47.526Z,82.28
2022-08-02T05:25:15.847Z,81.55
2022-08-02T05:27:42.927Z,80.11
2022-08-02T05:30:11.194Z,80.39
2022-08-02T05:32:50.430Z,80.13
2022-08-02T05:35:23.161Z,80.59
2022-08-02T05:37:51.729Z,80.28
2022-08-02T05:40:26.087Z,79.36
2022-08-02T05:42:56.715Z,79.71
2022-08-02T05:45:23.870Z,80.09
2022-08-02T05:47:51.328Z,80.97
2022-08-02T05:50:18.924Z,82.43
2022-08-02T05:52:48.828Z,83.09
2022-08-02T05:55:40.651Z,82.55
2022-08-02T05:58:16.685Z,81.45
2022-08-02T06:00:45.511Z,81.57
2022-08-02T06:03:37.133Z,81.19
2022-08-02T06:06:20.700Z,81.33
2022-08-02T06:08:51.875Z,81.02
2022-08-02T06:11:23.412Z,81.17
2022-08-02T06:13:51.767Z,80.68
2022-08-02T06:16:31.762Z,81.12
2022-08-02T06:19:01.761Z,79.89
2022-08-02T06:22:33.663Z,81.39
2022-08-02T06:24:19.714Z,80.00
2022-08-02T06:26:52.622Z,81.19
2022-08-02T06:29:23.370Z,81.06
2022-08-02T06:31:53.568Z,79.69
2022-08-02T06:34:20.571Z,79.53
2022-08-02T06:37:39.082Z,78.95
2022-08-02T06:40:28.027Z,78.63
2022-08-02T06:43:18.837Z,78.71
2022-08-02T06:45:45.974Z,78.02
2022-08-02T06:48:13.038Z,77.58
2022-08-02T06:50:42.049Z,78.35
2022-08-02T06:53:10.778Z,77.99
2022-08-02T06:55:43.380Z,77.99
2022-08-02T06:58:12.827Z,76.66
2022-08-02T07:00:42.236Z,77.47
2022-08-02T07:03:09.468Z,74.49
2022-08-02T07:05:36.703Z,74.39
2022-08-02T07:08:04.194Z,74.48
2022-08-02T07:10:31.287Z,73.23
2022-08-02T07:12:59.867Z,71.87
2022-08-02T07:15:27.190Z,71.66
2022-08-02T07:17:54.230Z,70.89
2022-08-02T07:20:21.237Z,70.03
2022-08-02T07:22:48.240Z,71.26
2022-08-02T07:25:15.657Z,69.24
2022-08-02T07:27:43.007Z,69.34
2022-08-02T07:30:10.906Z,69.07
2022-08-02T07:32:38.194Z,69.54
2022-08-02T07:35:07.690Z,67.62
2022-08-02T07:37:55.271Z,67.61
2022-08-02T07:40:25.022Z,67.75
2022-08-02T07:42:59.363Z,69.27
2022-08-02T07:45:31.240Z,69.46
2022-08-02T07:47:58.357Z,70.37
2022-08-02T07:50:25.750Z,70.96
2022-08-02T07:52:57.095Z,69.25
2022-08-02T07:55:38.943Z,69.78
2022-08-02T07:58:13.005Z,66.89
2022-08-02T08:00:44.495Z,68.16
2022-08-02T08:03:12.016Z,68.61
2022-08-02T08:05:39.191Z,65.92
2022-08-02T08:08:06.614Z,65.83
2022-08-02T08:10:34.271Z,64.88
2022-08-02T08:13:01.263Z,65.84
2022-08-02T08:15:28.276Z,67.23
2022-08-02T08:17:55.264Z,67.49
2022-08-02T08:20:23.102Z,64.99
2022-08-02T08:22:50.250Z,65.03
2022-08-02T08:25:17.232Z,62.95
2022-08-02T08:27:53.647Z,64.63
2022-08-02T08:30:22.816Z,61.56
2022-08-02T08:32:50.023Z,63.05
2022-08-02T08:35:17.347Z,65.33
2022-08-02T08:37:44.366Z,63.53
2022-08-02T08:40:12.701Z,62.82
2022-08-02T08:42:40.547Z,61.96
2022-08-02T08:45:09.178Z,63.92
2022-08-02T08:47:42.179Z,64.66
2022-08-02T08:50:25.778Z,61.83
2022-08-02T08:53:09.098Z,63.58
2022-08-02T08:55:39.465Z,62.25
2022-08-02T08:58:06.968Z,60.68
2022-08-02T09:00:36.011Z,61.42
2022-08-02T09:03:06.106Z,59.23
2022-08-02T09:05:36.914Z,60.28
2022-08-02T09:08:05.246Z,62.17
2022-08-02T09:10:44.948Z,60.27
2022-08-02T09:13:45.490Z,60.32
2022-08-02T09:16:14.562Z,60.80
2022-08-02T09:18:47.176Z,58.92
2022-08-02T09:21:17.187Z,60.20
2022-08-02T09:23:50.559Z,58.30
2022-08-02T09:26:24.961Z,55.73
2022-08-02T09:29:00.475Z,57.50
2022-08-02T09:31:28.211Z,55.63
2022-08-02T09:34:00.466Z,55.10
2022-08-02T09:36:43.764Z,55.69
2022-08-02T09:39:16.395Z,55.54
2022-08-02T09:41:45.663Z,56.63
2022-08-02T09:44:16.540Z,56.29
2022-08-02T09:46:46.177Z,57.55
2022-08-02T09:49:19.743Z,58.39
2022-08-02T09:51:47.092Z,56.11
2022-08-02T09:54:29.048Z,55.54
2022-08-02T09:57:01.952Z,55.65
2022-08-02T09:59:30.863Z,56.26
2022-08-02T10:02:02.007Z,54.84
2022-08-02T10:04:34.394Z,55.67
2022-08-02T10:07:21.701Z,54.91
2022-08-02T10:09:51.052Z,55.11
2022-08-02T10:12:25.037Z,54.80
2022-08-02T10:14:52.438Z,51.42
2022-08-02T10:17:21.088Z,51.01
2022-08-02T10:20:00.032Z,50.13
2022-08-02T10:22:31.304Z,50.85
2022-08-02T10:24:58.302Z,50.54
2022-08-02T10:27:25.946Z,52.96
2022-08-02T10:29:57.879Z,52.45
2022-08-02T10:32:34.883Z,52.11
2022-08-02T10:35:18.568Z,52.65
2022-08-02T10:37:55.943Z,53.42
2022-08-02T10:40:23.873Z,50.07
2022-08-02T10:42:53.523Z,50.34
2022-08-02T10:45:23.121Z,48.20
2022-08-02T10:48:16.581Z,47.30
2022-08-02T10:50:49.189Z,46.86
2022-08-02T10:53:29.207Z,46.97
2022-08-02T10:56:01.577Z,47.25
2022-08-02T10:58:34.325Z,48.56
2022-08-02T11:01:43.610Z,47.07
2022-08-02T11:04:10.893Z,46.55
2022-08-02T11:07:19.619Z,48.89
2022-08-02T11:09:49.953Z,48.59
2022-08-02T11:12:21.566Z,48.95
2022-08-02T11:15:07.818Z,51.28
2022-08-02T11:17:56.135Z,48.61
2022-08-02T11:20:29.481Z,48.88
2022-08-02T11:23:44.505Z,48.01
2022-08-02T11:26:31.182Z,47.96
2022-08-02T11:29:01.113Z,48.01
2022-08-02T11:31:30.099Z,44.92
2022-08-02T11:33:57.122Z,46.62
2022-08-02T11:36:24.282Z,46.62
2022-08-02T11:39:08.947Z,46.19
2022-08-02T11:41:46.121Z,46.61
2022-08-02T11:44:14.653Z,46.02
2022-08-02T11:46:41.953Z,46.19
2022-08-02T11:49:14.848Z,47.39
2022-08-02T11:52:06.838Z,48.29
2022-08-02T11:54:44.015Z,45.42
2022-08-02T11:57:18.913Z,44.25
2022-08-02T11:59:49.719Z,46.31
2022-08-02T12:02:19.599Z,46.84
2022-08-02T12:05:04.820Z,44.26
2022-08-02T12:07:46.103Z,47.57
2022-08-02T12:10:24.482Z,45.02
2022-08-02T12:12:57.941Z,45.35
2022-08-02T12:15:33.872Z,44.01
2022-08-02T12:18:20.269Z,43.35
2022-08-02T12:20:47.485Z,43.86
2022-08-02T12:23:14.799Z,44.79
2022-08-02T12:25:42.167Z,44.97
2022-08-02T12:28:22.192Z,46.69
2022-08-02T12:31:01.488Z,47.03
2022-08-02T12:33:45.820Z,42.87
2022-08-02T12:36:32.748Z,41.75
2022-08-02T12:39:01.519Z,43.22
2022-08-02T12:41:32.258Z,40.71
2022-08-02T12:44:00.336Z,42.05
2022-08-02T12:46:27.788Z,44.10
2022-08-02T12:49:16.460Z,45.03
2022-08-02T12:51:56.647Z,43.83
2022-08-02T12:54:40.939Z,42.90
2022-08-02T12:57:19.211Z,41.58
2022-08-02T12:59:53.990Z,42.51
2022-08-02T13:02:21.817Z,44.70
2022-08-02T13:04:50.164Z,45.04
2022-08-02T13:07:19.250Z,42.71
2022-08-02T13:09:48.178Z,41.90
2022-08-02T13:12:16.391Z,40.58
2022-08-02T13:14:43.685Z,40.82
2022-08-02T13:17:11.914Z,41.16
2022-08-02T13:19:39.015Z,40.07
2022-08-02T13:22:08.670Z,40.83
2022-08-02T13:24:40.868Z,41.47
2022-08-02T13:27:23.204Z,40.19
2022-08-02T13:29:51.519Z,40.57
2022-08-02T13:32:18.783Z,40.60
2022-08-02T13:34:46.002Z,41.13
2022-08-02T13:37:13.095Z,40.75
2022-08-02T13:39:40.419Z,40.27
2022-08-02T13:42:07.633Z,40.67
2022-08-02T13:44:35.572Z,41.02
2022-08-02T13:47:03.546Z,40.82
2022-08-02T13:49:51.627Z,41.23
2022-08-02T13:52:17.871Z,40.43
2022-08-02T13:54:44.848Z,41.26
2022-08-02T13:57:11.813Z,40.76
2022-08-02T13:59:56.154Z,41.08
2022-08-02T14:02:28.353Z,41.12
2022-08-02T14:04:56.700Z,40.46
2022-08-02T14:07:23.706Z,42.30
2022-08-02T14:09:50.629Z,41.91
2022-08-02T14:12:17.782Z,41.39
2022-08-02T14:14:44.811Z,41.05
2022-08-02T14:17:11.882Z,42.78
2022-08-02T14:19:39.843Z,40.77
2022-08-02T14:22:12.042Z,40.83
2022-08-02T14:24:41.491Z,41.23
2022-08-02T14:27:08.927Z,41.09
2022-08-02T14:29:35.984Z,39.94
2022-08-02T14:32:03.303Z,40.49
2022-08-02T14:34:30.349Z,41.09
2022-08-02T14:36:57.269Z,40.35
2022-08-02T14:39:24.552Z,41.82
2022-08-02T14:41:59.445Z,42.66
2022-08-02T14:44:30.695Z,40.83
2022-08-02T14:46:57.791Z,41.98
2022-08-02T14:49:26.832Z,41.96
2022-08-02T14:51:55.455Z,42.15
2022-08-02T14:54:28.032Z,42.56
2022-08-02T14:57:03.343Z,42.12
2022-08-02T14:59:31.087Z,42.22
2022-08-02T15:01:59.110Z,41.83
2022-08-02T15:04:26.995Z,41.27
2022-08-02T15:06:54.967Z,41.58
2022-08-02T15:09:22.357Z,41.64
2022-08-02T15:11:49.849Z,39.72
2022-08-02T15:14:20.516Z,41.29
2022-08-02T15:16:57.234Z,41.59
2022-08-02T15:19:56.731Z,40.45
2022-08-02T15:22:17.076Z,39.80
2022-08-02T15:24:46.307Z,39.78
2022-08-02T15:27:14.687Z,40.13
2022-08-02T15:29:44.408Z,39.44
2022-08-02T15:32:13.115Z,39.98
2022-08-02T15:34:40.461Z,38.94
2022-08-02T15:37:07.554Z,40.04
2022-08-02T15:39:34.601Z,38.82
2022-08-02T15:42:01.737Z,39.97
2022-08-02T15:44:29.099Z,40.10
2022-08-02T15:46:56.240Z,40.25
2022-08-02T15:49:24.708Z,39.82
2022-08-02T15:51:52.910Z,40.84
2022-08-02T15:54:20.521Z,40.70
2022-08-02T15:56:48.011Z,40.35
2022-08-02T15:59:15.280Z,40.78
2022-08-02T16:01:47.231Z,40.77
2022-08-02T16:04:16.504Z,40.17
2022-08-02T16:06:44.325Z,41.19
2022-08-02T16:09:12.024Z,41.57
2022-08-02T16:11:40.306Z,40.28
2022-08-02T16:14:07.804Z,40.15
2022-08-02T16:16:37.048Z,40.72
2022-08-02T16:19:46.586Z,40.03
2022-08-02T16:21:53.823Z,42.10
2022-08-02T16:24:21.290Z,40.72
2022-08-02T16:26:48.831Z,41.84
2022-08-02T16:29:18.854Z,42.03
2022-08-02T16:31:47.969Z,41.76
2022-08-02T16:34:16.408Z,41.91
2022-08-02T16:36:44.041Z,42.76
2022-08-02T16:39:11.557Z,42.35
2022-08-02T16:41:50.602Z,42.19
2022-08-02T16:44:27.089Z,42.98
2022-08-02T16:47:00.518Z,43.37
2022-08-02T16:50:05.675Z,43.01
2022-08-02T16:52:14.735Z,43.46
2022-08-02T16:54:41.759Z,42.45
2022-08-02T16:57:08.745Z,42.55
2022-08-02T16:59:41.816Z,42.36
2022-08-02T17:02:18.111Z,42.23
2022-08-02T17:04:47.589Z,42.08
2022-08-02T17:08:15.614Z,42.56
2022-08-02T17:10:06.515Z,42.62
2022-08-02T17:12:36.565Z,42.40
2022-08-02T17:16:01.089Z,42.52
2022-08-02T17:17:51.681Z,42.94
2022-08-02T17:20:20.603Z,42.87
2022-08-02T17:22:47.941Z,42.86
2022-08-02T17:25:17.512Z,43.94
2022-08-02T17:27:45.720Z,44.88
2022-08-02T17:30:14.141Z,44.51
2022-08-02T17:32:45.671Z,45.46
2022-08-02T17:35:15.742Z,44.70
2022-08-02T17:37:54.722Z,44.78
2022-08-02T17:40:27.306Z,44.11
2022-08-02T17:42:54.336Z,44.83
2022-08-02T17:45:25.825Z,45.27
2022-08-02T17:48:04.898Z,46.30
2022-08-02T17:50:36.644Z,46.07
2022-08-02T17:53:04.691Z,46.64
2022-08-02T17:55:33.213Z,46.83
2022-08-02T17:58:00.226Z,47.01
2022-08-02T18:00:36.619Z,46.86
2022-08-02T18:03:07.828Z,47.48
2022-08-02T18:05:39.429Z,47.96
2022-08-02T18:08:09.274Z,48.44
2022-08-02T18:10:36.252Z,51.02
2022-08-02T18:13:05.296Z,50.99
2022-08-02T18:15:33.360Z,51.29
2022-08-02T18:18:00.793Z,50.80
2022-08-02T18:20:27.844Z,50.41
2022-08-02T18:22:58.382Z,50.25
2022-08-02T18:25:37.183Z,50.20
2022-08-02T18:28:11.479Z,49.08
2022-08-02T18:30:39.097Z,49.25
2022-08-02T18:33:54.946Z,50.08
2022-08-02T18:35:55.321Z,51.17
2022-08-02T18:38:26.740Z,50.87
2022-08-02T18:40:55.461Z,50.95
2022-08-02T18:43:25.279Z,50.94
2022-08-02T18:46:07.391Z,51.10
2022-08-02T18:48:44.156Z,51.55
2022-08-02T18:51:14.643Z,51.98
2022-08-02T18:53:43.074Z,52.15
2022-08-02T18:56:20.262Z,52.64
2022-08-02T18:58:54.647Z,52.24
2022-08-02T19:01:32.036Z,52.80
2022-08-02T19:04:02.773Z,54.11
2022-08-02T19:06:30.721Z,55.16
2022-08-02T19:09:04.924Z,55.07
2022-08-02T19:11:40.776Z,56.17
2022-08-02T19:14:08.611Z,55.84
2022-08-02T19:16:37.295Z,56.18
2022-08-02T19:19:06.595Z,56.30
2022-08-02T19:22:18.752Z,56.45
2022-08-02T19:24:20.897Z,57.82
2022-08-02T19:29:43.301Z,58.63
2022-08-02T19:32:41.830Z,59.02
2022-08-02T19:35:19.671Z,60.22
2022-08-02T19:37:54.059Z,59.29
2022-08-02T19:40:24.443Z,59.32
2022-08-02T19:44:21.123Z,60.34
2022-08-02T19:45:49.010Z,60.66
2022-08-02T19:48:18.326Z,59.72
2022-08-02T19:50:56.761Z,58.44
2022-08-02T19:53:28.496Z,58.97
2022-08-02T19:56:01.204Z,59.57
2022-08-02T19:58:32.434Z,60.56
2022-08-02T20:00:59.653Z,61.46
2022-08-02T20:03:51.065Z,62.21
2022-08-02T20:06:13.874Z,62.82
2022-08-02T20:08:52.964Z,62.25
2022-08-02T20:11:23.316Z,62.38
2022-08-02T20:13:52.601Z,62.59
2022-08-02T20:16:20.812Z,63.54
2022-08-02T20:18:56.506Z,63.25
2022-08-02T20:21:36.469Z,63.04
2022-08-02T20:24:11.910Z,63.75
2022-08-02T20:26:47.156Z,64.04
2022-08-02T20:29:14.315Z,64.23
2022-08-02T20:31:41.244Z,65.21
2022-08-02T20:34:08.222Z,64.77
2022-08-02T20:36:35.189Z,65.59
2022-08-02T20:39:02.284Z,65.26
2022-08-02T20:41:36.716Z,65.61
2022-08-02T20:44:16.217Z,65.87
2022-08-02T20:46:57.160Z,66.80
2022-08-02T20:49:40.535Z,66.96
2022-08-02T20:52:23.620Z,67.42
2022-08-02T20:54:52.818Z,67.51
2022-08-02T20:57:48.946Z,68.33
2022-08-02T21:00:09.079Z,68.91
2022-08-02T21:02:36.128Z,69.37
2022-08-02T21:05:07.701Z,70.13
2022-08-02T21:07:35.070Z,70.91
2022-08-02T21:10:02.812Z,69.85
2022-08-02T21:12:30.488Z,69.02
2022-08-02T21:14:57.646Z,69.99
2022-08-02T21:17:37.220Z,70.22
2022-08-02T21:20:13.824Z,69.21
2022-08-02T21:22:44.642Z,69.14
2022-08-02T21:25:15.770Z,68.54
2022-08-02T21:27:52.237Z,67.51
2022-08-02T21:30:24.312Z,66.83
2022-08-02T21:32:54.682Z,67.28
2022-08-02T21:35:25.108Z,67.67
2022-08-02T21:37:58.363Z,68.66
2022-08-02T21:40:25.599Z,69.17
2022-08-02T21:42:54.062Z,69.15
2022-08-02T21:45:21.068Z,70.08
2022-08-02T21:47:48.768Z,70.33
2022-08-02T21:50:16.559Z,70.41
2022-08-02T21:52:52.263Z,69.63
2022-08-02T21:55:21.266Z,69.10
2022-08-02T21:57:51.508Z,69.25
2022-08-02T22:00:28.321Z,69.48
2022-08-02T22:02:56.284Z,69.95
2022-08-02T22:05:23.624Z,70.21
2022-08-02T22:07:50.725Z,71.38
2022-08-02T22:10:17.810Z,72.40
2022-08-02T22:12:45.059Z,72.25
2022-08-02T22:15:12.144Z,72.52
2022-08-02T22:17:51.903Z,72.02
2022-08-02T22:20:21.459Z,72.51
2022-08-02T22:22:52.163Z,72.17
2022-08-02T22:25:26.444Z,71.56
2022-08-02T22:28:35.066Z,71.75
2022-08-02T22:30:52.836Z,72.00
2022-08-02T22:33:42.438Z,72.30
2022-08-02T22:36:19.634Z,73.09
2022-08-02T22:38:56.395Z,73.92
2022-08-02T22:41:23.491Z,73.87
2022-08-02T22:43:50.753Z,73.56
2022-08-02T22:46:17.939Z,73.31
2022-08-02T22:48:45.803Z,72.23
2022-08-02T22:51:14.678Z,72.39
2022-08-02T22:53:44.595Z,72.55
2022-08-02T22:56:14.614Z,73.39
2022-08-02T22:58:48.002Z,58.09
2022-08-02T23:01:29.972Z,74.17
2022-08-02T23:03:56.955Z,74.79
2022-08-02T23:06:23.911Z,74.55
2022-08-02T23:08:50.928Z,75.86
2022-08-02T23:11:17.920Z,79.18
2022-08-02T23:13:44.919Z,78.88
2022-08-02T23:16:30.189Z,79.18
2022-08-02T23:19:15.583Z,79.39
2022-08-02T23:22:01.579Z,80.47
2022-08-02T23:24:30.510Z,82.10
2022-08-02T23:26:57.494Z,86.41
2022-08-02T23:29:24.564Z,86.58
2022-08-02T23:31:51.569Z,86.15
2022-08-02T23:34:20.095Z,85.29
2022-08-02T23:36:47.128Z,84.60
2022-08-02T23:39:14.111Z,84.84
2022-08-02T23:41:41.080Z,85.42
2022-08-02T23:44:15.620Z,82.65
2022-08-02T23:46:44.702Z,82.39
2022-08-02T23:49:12.754Z,82.98
2022-08-02T23:51:40.835Z,82.26
2022-08-02T23:54:08.041Z,82.63
2022-08-02T23:56:35.100Z,83.07
2022-08-02T23:59:02.078Z,82.53
